Aviation Digital Data Service (ADDS)

Output produced by METARs form (1749 UTC 12 December 2017)
found at http://aviationweather.gov/adds/metars/
 
KPHL 121725Z 1218/1324 25012KT P6SM OVC060 
     FM122200 27015G25KT P6SM SCT060 
     FM131200 28018G32KT P6SM SKC 
     FM131900 28015G25KT P6SM SKC